createdAt,value
2022-09-05T00:00:44.646Z,56.40
2022-09-05T00:03:53.203Z,56.43
2022-09-05T00:06:52.675Z,56.55
2022-09-05T00:09:38.373Z,56.56
2022-09-05T00:12:27.798Z,56.59
2022-09-05T00:15:39.454Z,56.58
2022-09-05T00:24:23.270Z,56.79
2022-09-05T00:24:32.019Z,56.84
2022-09-05T00:26:02.688Z,56.91
2022-09-05T00:29:06.571Z,56.95
2022-09-05T00:32:19.389Z,57.11
2022-09-05T00:35:14.211Z,57.13
2022-09-05T00:38:18.375Z,57.16
2022-09-05T00:41:13.847Z,57.25
2022-09-05T00:44:03.208Z,57.30
2022-09-05T00:47:40.113Z,57.45
2022-09-05T00:50:56.137Z,57.20
2022-09-05T00:54:01.176Z,57.68
2022-09-05T00:57:31.845Z,57.83
2022-09-05T01:00:23.799Z,57.80
2022-09-05T01:03:34.556Z,57.92
2022-09-05T01:07:04.230Z,57.83
2022-09-05T01:10:23.789Z,58.01
2022-09-05T01:13:43.187Z,58.03
2022-09-05T01:16:56.275Z,58.10
2022-09-05T01:19:44.706Z,58.21
2022-09-05T01:22:48.569Z,58.12
2022-09-05T01:25:48.974Z,58.13
2022-09-05T01:29:15.940Z,58.29
2022-09-05T01:32:22.426Z,58.25
2022-09-05T01:35:26.338Z,58.38
2022-09-05T01:38:27.334Z,58.34
2022-09-05T01:41:40.200Z,58.24
2022-09-05T01:45:04.328Z,58.33
2022-09-05T01:48:05.857Z,58.43
2022-09-05T01:51:29.001Z,58.51
2022-09-05T01:54:35.184Z,58.47
2022-09-05T01:57:58.324Z,58.50
2022-09-05T02:01:30.161Z,58.51
2022-09-05T02:04:22.943Z,58.43
2022-09-05T02:07:37.834Z,58.51
2022-09-05T02:11:03.835Z,58.65
2022-09-05T02:14:09.414Z,58.70
2022-09-05T02:17:08.445Z,58.81
2022-09-05T02:20:23.600Z,58.83
2022-09-05T02:23:32.589Z,58.79
2022-09-05T02:26:53.345Z,58.97
2022-09-05T02:29:57.886Z,59.10
2022-09-05T02:32:55.445Z,58.99
2022-09-05T02:36:17.210Z,59.10
2022-09-05T02:45:07.281Z,59.16
2022-09-05T02:45:18.300Z,59.23
2022-09-05T02:46:21.522Z,59.28
2022-09-05T02:52:16.796Z,59.31
2022-09-05T02:57:24.143Z,59.27
2022-09-05T02:57:35.334Z,59.37
2022-09-05T02:59:10.930Z,59.39
2022-09-05T03:02:30.846Z,59.46
2022-09-05T03:05:25.344Z,59.60
2022-09-05T03:08:24.307Z,59.55
2022-09-05T03:12:28.921Z,59.58
2022-09-05T03:15:46.617Z,59.63
2022-09-05T03:18:44.245Z,59.68
2022-09-05T03:22:00.445Z,59.64
2022-09-05T03:25:25.316Z,59.71
2022-09-05T03:28:47.502Z,59.86
2022-09-05T03:32:10.402Z,59.93
2022-09-05T03:35:15.313Z,60.02
2022-09-05T03:38:39.761Z,60.00
2022-09-05T03:41:56.714Z,60.06
2022-09-05T03:44:50.976Z,60.06
2022-09-05T03:47:38.679Z,60.07
2022-09-05T03:55:18.605Z,60.09
2022-09-05T03:57:14.133Z,60.03
2022-09-05T03:57:42.600Z,60.17
2022-09-05T04:00:36.980Z,60.22
2022-09-05T04:08:07.893Z,60.22
2022-09-05T04:08:29.180Z,60.38
2022-09-05T04:10:10.965Z,60.38
2022-09-05T04:13:19.202Z,60.39
2022-09-05T04:16:15.527Z,60.48
2022-09-05T04:19:14.788Z,60.44
2022-09-05T04:22:10.471Z,60.64
2022-09-05T04:25:10.052Z,60.66
2022-09-05T04:28:15.264Z,60.76
2022-09-05T04:31:30.353Z,60.84
2022-09-05T04:34:43.042Z,60.79
2022-09-05T04:37:48.213Z,60.90
2022-09-05T04:41:02.065Z,60.92
2022-09-05T04:44:03.616Z,61.13
2022-09-05T04:47:05.468Z,61.15
2022-09-05T04:50:02.427Z,61.24
2022-09-05T04:53:33.549Z,61.31
2022-09-05T04:56:27.470Z,61.44
2022-09-05T05:03:31.287Z,61.43
2022-09-05T05:06:13.501Z,61.50
2022-09-05T05:06:46.941Z,61.68
2022-09-05T05:09:45.737Z,61.60
2022-09-05T05:17:55.976Z,61.56
2022-09-05T05:18:16.108Z,61.69
2022-09-05T05:20:41.159Z,61.80
2022-09-05T05:23:08.758Z,61.83
2022-09-05T05:26:01.837Z,61.99
2022-09-05T05:29:02.397Z,61.92
2022-09-05T05:32:00.056Z,62.13
2022-09-05T05:34:56.565Z,62.11
2022-09-05T05:38:20.823Z,62.22
2022-09-05T05:41:22.530Z,62.30
2022-09-05T05:44:17.140Z,62.49
2022-09-05T05:47:26.780Z,62.61
2022-09-05T05:50:31.247Z,62.55
2022-09-05T05:53:32.007Z,62.63
2022-09-05T05:56:34.398Z,62.78
2022-09-05T05:59:35.271Z,62.74
2022-09-05T06:02:44.229Z,62.89
2022-09-05T06:05:44.872Z,62.91
2022-09-05T06:11:09.428Z,62.86
2022-09-05T06:14:59.311Z,62.96
2022-09-05T06:15:57.396Z,63.19
2022-09-05T06:20:08.272Z,63.08
2022-09-05T06:23:38.653Z,63.25
2022-09-05T06:26:53.914Z,63.16
2022-09-05T06:30:18.449Z,63.24
2022-09-05T06:33:09.753Z,63.39
2022-09-05T06:36:08.965Z,63.34
2022-09-05T06:39:23.292Z,63.34
2022-09-05T06:42:33.436Z,63.47
2022-09-05T06:45:28.643Z,63.47
2022-09-05T06:48:47.056Z,63.41
2022-09-05T06:51:47.752Z,63.55
2022-09-05T06:55:06.653Z,63.51
2022-09-05T06:58:22.831Z,63.54
2022-09-05T07:01:11.582Z,63.50
2022-09-05T07:04:31.931Z,63.59
2022-09-05T07:07:36.715Z,63.57
2022-09-05T07:10:50.699Z,63.50
2022-09-05T07:13:56.857Z,63.48
2022-09-05T07:16:56.308Z,63.39
2022-09-05T07:20:05.671Z,63.44
2022-09-05T07:23:51.374Z,63.47
2022-09-05T07:26:49.622Z,63.33
2022-09-05T07:29:35.223Z,61.40
2022-09-05T07:32:24.433Z,60.81
2022-09-05T07:35:31.161Z,60.42
2022-09-05T07:38:50.222Z,60.40
2022-09-05T07:41:54.043Z,61.34
2022-09-05T07:44:54.223Z,61.21
2022-09-05T07:47:55.910Z,60.05
2022-09-05T07:56:34.715Z,59.34
2022-09-05T07:57:06.509Z,58.85
2022-09-05T07:57:51.395Z,58.70
2022-09-05T08:00:53.824Z,57.67
2022-09-05T08:03:44.134Z,57.53
2022-09-05T08:07:46.547Z,57.78
2022-09-05T08:10:08.518Z,56.34
2022-09-05T08:13:24.192Z,56.18
2022-09-05T08:16:16.293Z,55.90
2022-09-05T08:19:39.738Z,55.55
2022-09-05T08:22:31.093Z,54.82
2022-09-05T08:25:27.511Z,54.45
2022-09-05T08:28:33.765Z,53.37
2022-09-05T08:31:52.785Z,53.09
2022-09-05T08:34:52.548Z,52.61
2022-09-05T08:37:43.089Z,51.84
2022-09-05T08:40:39.358Z,51.34
2022-09-05T08:46:36.945Z,50.37
2022-09-05T08:47:26.171Z,49.63
2022-09-05T08:50:56.882Z,48.85
2022-09-05T08:54:27.521Z,47.86
2022-09-05T08:57:25.461Z,47.09
2022-09-05T09:00:24.183Z,46.81
2022-09-05T09:03:22.380Z,45.91
2022-09-05T09:06:16.124Z,45.20
2022-09-05T09:09:18.580Z,44.72
2022-09-05T09:12:52.226Z,43.95
2022-09-05T09:16:11.314Z,43.22
2022-09-05T09:19:10.977Z,42.43
2022-09-05T09:22:23.689Z,42.24
2022-09-05T09:25:31.840Z,41.51
2022-09-05T09:28:49.894Z,40.89
2022-09-05T09:32:07.496Z,40.13
2022-09-05T09:35:20.902Z,39.46
2022-09-05T09:38:14.937Z,38.86
2022-09-05T09:41:19.168Z,38.82
2022-09-05T09:44:42.552Z,38.48
2022-09-05T09:47:56.697Z,38.11
2022-09-05T09:50:58.319Z,37.80
2022-09-05T09:54:21.025Z,37.55
2022-09-05T09:57:44.368Z,37.70
2022-09-05T10:00:51.327Z,37.23
2022-09-05T10:09:57.954Z,37.28
2022-09-05T10:11:09.666Z,37.08
2022-09-05T10:14:49.672Z,36.90
2022-09-05T10:17:46.675Z,36.88
2022-09-05T10:21:15.719Z,37.02
2022-09-05T10:24:19.687Z,37.06
2022-09-05T10:27:19.809Z,36.89
2022-09-05T10:31:52.781Z,36.95
2022-09-05T10:35:13.000Z,36.76
2022-09-05T10:37:12.237Z,36.84
2022-09-05T10:40:06.503Z,36.80
2022-09-05T10:43:11.047Z,36.76
2022-09-05T10:45:58.484Z,36.79
2022-09-05T10:48:58.999Z,36.60
2022-09-05T10:52:41.394Z,36.61
2022-09-05T10:55:55.633Z,36.39
2022-09-05T11:01:46.948Z,36.33
2022-09-05T11:02:34.653Z,36.60
2022-09-05T11:05:29.683Z,36.62
2022-09-05T11:08:28.698Z,36.64
2022-09-05T11:11:34.687Z,36.67
2022-09-05T11:14:52.463Z,36.67
2022-09-05T11:17:44.889Z,36.63
2022-09-05T11:21:04.809Z,36.55
2022-09-05T11:24:12.402Z,36.69
2022-09-05T11:27:25.208Z,36.62
2022-09-05T11:30:28.392Z,36.60
2022-09-05T11:39:59.857Z,36.76
2022-09-05T11:40:04.817Z,36.83
2022-09-05T11:40:35.358Z,36.63
2022-09-05T11:44:26.230Z,36.82
2022-09-05T11:47:48.603Z,36.77
2022-09-05T11:50:57.857Z,36.67
2022-09-05T11:54:15.632Z,36.63
2022-09-05T11:57:33.218Z,36.88
2022-09-05T12:00:34.486Z,36.80
2022-09-05T12:04:01.586Z,36.85
2022-09-05T12:07:31.771Z,36.85
2022-09-05T12:10:47.031Z,36.99
2022-09-05T12:14:20.958Z,37.02
2022-09-05T12:17:35.206Z,37.09
2022-09-05T12:20:37.472Z,36.86
2022-09-05T12:24:53.355Z,37.15
2022-09-05T12:27:42.930Z,36.86
2022-09-05T12:30:42.436Z,36.94
2022-09-05T12:40:54.274Z,36.99
2022-09-05T12:41:38.506Z,37.12
2022-09-05T12:42:10.210Z,37.16
2022-09-05T12:44:16.905Z,37.20
2022-09-05T12:46:45.856Z,37.16
2022-09-05T12:49:51.903Z,37.41
2022-09-05T12:53:06.931Z,37.35
2022-09-05T12:56:32.253Z,37.30
2022-09-05T13:02:58.640Z,37.23
2022-09-05T13:03:14.117Z,37.35
2022-09-05T13:06:21.468Z,37.43
2022-09-05T13:09:30.875Z,37.23
2022-09-05T13:14:57.341Z,37.25
2022-09-05T13:16:03.535Z,37.36
2022-09-05T13:19:07.104Z,37.36
2022-09-05T13:21:57.731Z,37.24
2022-09-05T13:24:50.988Z,37.22
2022-09-05T13:27:46.651Z,37.16
2022-09-05T13:34:34.003Z,37.24
2022-09-05T13:38:00.004Z,37.08
2022-09-05T13:38:13.927Z,37.07
2022-09-05T13:40:27.482Z,37.08
2022-09-05T13:43:26.658Z,37.17
2022-09-05T13:46:26.554Z,37.07
2022-09-05T13:49:39.764Z,36.88
2022-09-05T13:52:38.776Z,36.93
2022-09-05T13:55:38.101Z,36.89
2022-09-05T13:58:56.842Z,36.74
2022-09-05T14:02:25.943Z,36.71
2022-09-05T14:05:41.532Z,36.71
2022-09-05T14:08:44.115Z,36.78
2022-09-05T14:11:57.937Z,36.74
2022-09-05T14:15:12.626Z,36.58
2022-09-05T14:18:20.226Z,36.75
2022-09-05T14:21:19.821Z,36.88
2022-09-05T14:24:28.319Z,36.50
2022-09-05T14:27:25.898Z,36.54
2022-09-05T14:32:56.059Z,36.95
2022-09-05T14:37:40.626Z,36.67
2022-09-05T14:37:50.985Z,36.67
2022-09-05T14:41:04.901Z,36.60
2022-09-05T14:44:01.660Z,36.66
2022-09-05T14:46:49.871Z,36.38
2022-09-05T14:49:42.468Z,36.55
2022-09-05T14:52:20.320Z,36.39
2022-09-05T15:02:44.407Z,36.61
2022-09-05T15:02:54.993Z,36.55
2022-09-05T15:06:41.148Z,36.29
2022-09-05T15:12:14.176Z,36.36
2022-09-05T15:12:31.376Z,36.24
2022-09-05T15:15:26.267Z,36.04
2022-09-05T15:18:13.737Z,36.09
2022-09-05T15:20:46.343Z,36.01
2022-09-05T15:23:24.566Z,36.20
2022-09-05T15:26:04.859Z,35.94
2022-09-05T15:28:43.741Z,36.13
2022-09-05T15:31:25.226Z,35.83
2022-09-05T15:33:56.856Z,35.82
2022-09-05T15:36:40.625Z,35.89
2022-09-05T15:39:29.400Z,36.06
2022-09-05T15:42:24.173Z,36.03
2022-09-05T15:45:10.105Z,36.16
2022-09-05T15:48:02.454Z,36.18
2022-09-05T15:50:43.388Z,36.23
2022-09-05T15:53:25.352Z,36.00
2022-09-05T15:56:01.185Z,36.06
2022-09-05T15:58:52.316Z,36.20
2022-09-05T16:01:58.631Z,36.23
2022-09-05T16:10:27.569Z,36.26
2022-09-05T16:10:39.106Z,36.09
2022-09-05T16:10:39.699Z,36.14
2022-09-05T16:13:43.623Z,36.27
2022-09-05T16:21:47.356Z,36.03
2022-09-05T16:23:26.465Z,36.21
2022-09-05T16:23:33.822Z,36.02
2022-09-05T16:25:28.379Z,35.88
2022-09-05T16:28:16.218Z,36.09
2022-09-05T16:30:44.002Z,35.98
2022-09-05T16:33:16.701Z,35.98
2022-09-05T16:35:49.903Z,35.94
2022-09-05T16:38:48.616Z,35.94
2022-09-05T16:41:42.419Z,36.24
2022-09-05T16:44:36.294Z,36.34
2022-09-05T16:47:44.950Z,36.36
2022-09-05T16:50:34.625Z,36.26
2022-09-05T16:53:32.288Z,36.23
2022-09-05T16:56:30.447Z,36.26
2022-09-05T16:59:10.630Z,36.08
2022-09-05T17:01:50.893Z,36.31
2022-09-05T17:04:38.826Z,36.10
2022-09-05T17:07:32.897Z,36.15
2022-09-05T17:10:20.021Z,36.19
2022-09-05T17:12:54.965Z,36.21
2022-09-05T17:15:37.587Z,36.32
2022-09-05T17:18:19.706Z,36.45
2022-09-05T17:20:59.109Z,36.45
2022-09-05T17:29:15.585Z,36.58
2022-09-05T17:29:36.091Z,36.49
2022-09-05T17:32:52.216Z,36.67
2022-09-05T17:35:31.554Z,36.63
2022-09-05T17:38:34.561Z,36.67
2022-09-05T17:41:54.602Z,36.80
2022-09-05T17:44:44.200Z,36.87
2022-09-05T17:47:50.163Z,36.96
2022-09-05T17:50:53.139Z,37.03
2022-09-05T17:53:33.713Z,37.15
2022-09-05T17:56:04.695Z,37.28
2022-09-05T17:58:49.307Z,37.17
2022-09-05T18:01:26.696Z,37.26
2022-09-05T18:04:18.053Z,37.29
2022-09-05T18:06:59.390Z,37.24
2022-09-05T18:09:49.639Z,37.41
2022-09-05T18:15:27.204Z,37.41
2022-09-05T18:17:55.150Z,37.42
2022-09-05T18:21:12.342Z,37.58
2022-09-05T18:23:58.930Z,37.72
2022-09-05T18:26:37.495Z,37.76
2022-09-05T18:29:16.182Z,37.63
2022-09-05T18:31:45.309Z,37.75
2022-09-05T18:34:19.716Z,37.79
2022-09-05T18:37:29.293Z,37.89
2022-09-05T18:40:36.399Z,38.00
2022-09-05T18:43:20.902Z,37.96
2022-09-05T18:46:08.065Z,37.93
2022-09-05T18:50:08.161Z,38.05
2022-09-05T18:52:02.059Z,38.00
2022-09-05T18:54:36.982Z,37.99
2022-09-05T18:57:28.482Z,38.08
2022-09-05T19:00:07.995Z,38.23
2022-09-05T19:02:59.370Z,38.17
2022-09-05T19:05:51.701Z,38.26
2022-09-05T19:08:31.951Z,38.33
2022-09-05T19:11:27.803Z,38.36
2022-09-05T19:14:26.186Z,38.58
2022-09-05T19:16:52.769Z,38.50
2022-09-05T19:19:27.336Z,38.63
2022-09-05T19:22:39.574Z,38.58
2022-09-05T19:24:50.232Z,38.72
2022-09-05T19:28:05.976Z,38.72
2022-09-05T19:36:58.902Z,38.77
2022-09-05T19:37:03.786Z,38.88
2022-09-05T19:37:06.263Z,38.66
2022-09-05T19:44:01.945Z,38.80
2022-09-05T19:47:30.684Z,38.92
2022-09-05T19:47:34.474Z,38.90
2022-09-05T19:50:58.642Z,38.91
2022-09-05T19:53:26.735Z,39.12
2022-09-05T19:55:59.784Z,39.11
2022-09-05T19:58:30.822Z,39.31
2022-09-05T20:01:08.425Z,39.16
2022-09-05T20:03:45.643Z,39.29
2022-09-05T20:06:31.996Z,39.40
2022-09-05T20:09:20.125Z,39.46
2022-09-05T20:11:58.896Z,39.53
2022-09-05T20:14:31.049Z,39.65
2022-09-05T20:17:31.575Z,39.66
2022-09-05T20:20:15.557Z,39.60
2022-09-05T20:22:51.500Z,39.75
2022-09-05T20:25:35.302Z,39.82
2022-09-05T20:28:22.429Z,39.82
2022-09-05T20:31:08.428Z,39.89
2022-09-05T20:33:48.146Z,40.02
2022-09-05T20:43:08.337Z,40.04
2022-09-05T20:43:15.472Z,40.27
2022-09-05T20:43:32.443Z,40.10
2022-09-05T20:45:48.442Z,40.35
2022-09-05T20:54:07.459Z,40.44
2022-09-05T20:54:23.019Z,40.53
2022-09-05T20:54:34.757Z,40.65
2022-09-05T20:57:28.944Z,40.79
2022-09-05T21:00:06.475Z,40.97
2022-09-05T21:02:34.734Z,40.97
2022-09-05T21:05:20.970Z,41.07
2022-09-05T21:08:06.890Z,41.22
2022-09-05T21:10:57.450Z,41.37
2022-09-05T21:13:32.822Z,41.45
2022-09-05T21:16:19.898Z,41.50
2022-09-05T21:18:51.952Z,41.61
2022-09-05T21:21:30.229Z,41.69
2022-09-05T21:24:17.534Z,41.81
2022-09-05T21:26:52.531Z,41.94
2022-09-05T21:29:32.781Z,41.93
2022-09-05T21:32:10.479Z,42.00
2022-09-05T21:34:55.204Z,42.05
2022-09-05T21:37:26.485Z,42.13
2022-09-05T21:40:00.954Z,42.17
2022-09-05T21:47:33.263Z,42.28
2022-09-05T21:47:47.727Z,42.34
2022-09-05T21:48:16.907Z,42.48
2022-09-05T21:51:02.731Z,42.44
2022-09-05T21:57:53.658Z,42.44
2022-09-05T21:59:21.637Z,42.57
2022-09-05T21:59:46.536Z,42.58
2022-09-05T22:02:18.256Z,42.70
2022-09-05T22:04:48.470Z,42.65
2022-09-05T22:07:31.811Z,42.72
2022-09-05T22:10:08.620Z,42.83
2022-09-05T22:12:41.569Z,42.83
2022-09-05T22:15:27.392Z,42.85
2022-09-05T22:18:27.064Z,43.00
2022-09-05T22:21:32.545Z,42.94
2022-09-05T22:23:54.168Z,43.01
2022-09-05T22:26:22.235Z,43.02
2022-09-05T22:28:52.553Z,43.02
2022-09-05T22:31:23.723Z,43.04
2022-09-05T22:33:54.815Z,43.16
2022-09-05T22:36:24.991Z,43.29
2022-09-05T22:38:55.258Z,43.18
2022-09-05T22:41:30.431Z,43.28
2022-09-05T22:44:04.933Z,43.29
2022-09-05T22:46:33.059Z,43.35
2022-09-05T22:49:00.909Z,43.38
2022-09-05T22:51:28.754Z,43.48
2022-09-05T22:53:56.787Z,43.52
2022-09-05T22:56:34.777Z,43.58
2022-09-05T22:59:06.871Z,43.68
2022-09-05T23:01:37.955Z,43.76
2022-09-05T23:04:09.088Z,43.73
2022-09-05T23:06:38.283Z,43.79
2022-09-05T23:09:06.176Z,43.87
2022-09-05T23:11:36.044Z,43.85
2022-09-05T23:14:06.894Z,43.91
2022-09-05T23:16:37.790Z,44.02
2022-09-05T23:19:08.427Z,43.95
2022-09-05T23:21:36.374Z,43.97
2022-09-05T23:24:04.726Z,44.01
2022-09-05T23:26:35.402Z,44.07
2022-09-05T23:29:03.477Z,44.11
2022-09-05T23:31:33.741Z,44.14
2022-09-05T23:34:04.701Z,44.18
2022-09-05T23:36:34.745Z,44.23
2022-09-05T23:39:05.585Z,44.27
2022-09-05T23:41:35.154Z,44.31
2022-09-05T23:44:02.975Z,44.49
2022-09-05T23:46:35.155Z,44.48
2022-09-05T23:49:06.134Z,44.59
2022-09-05T23:51:36.996Z,44.52
2022-09-05T23:54:04.717Z,44.73
2022-09-05T23:56:32.412Z,44.63
2022-09-05T23:59:00.360Z,44.82
